createdAt,value
2018-09-30T00:01:07.824Z,66.79
2018-09-30T00:03:36.635Z,66.56
2018-09-30T00:06:05.477Z,66.76
2018-09-30T00:08:34.288Z,67.26
2018-09-30T00:11:03.167Z,67.72
2018-09-30T00:13:32.005Z,67.95
2018-09-30T00:16:00.809Z,68.10
2018-09-30T00:18:29.628Z,67.84
2018-09-30T00:20:58.486Z,68.20
2018-09-30T00:23:27.313Z,68.11
2018-09-30T00:26:13.667Z,68.15
2018-09-30T00:28:42.789Z,68.48
2018-09-30T00:31:11.849Z,68.42
2018-09-30T00:33:58.796Z,68.58
2018-09-30T00:36:27.759Z,68.62
2018-09-30T00:38:56.476Z,68.59
2018-09-30T00:41:25.299Z,67.12
2018-09-30T00:43:54.114Z,67.84
2018-09-30T00:46:22.935Z,67.76
2018-09-30T00:48:51.773Z,68.00
2018-09-30T00:51:20.575Z,67.56
2018-09-30T00:53:49.385Z,67.81
2018-09-30T00:56:18.225Z,67.83
2018-09-30T00:58:47.027Z,67.83
2018-09-30T01:01:15.869Z,67.87
2018-09-30T01:03:44.688Z,67.86
2018-09-30T01:06:13.507Z,67.91
2018-09-30T01:08:42.309Z,68.38
2018-09-30T01:11:11.135Z,67.45
2018-09-30T01:13:39.942Z,68.26
2018-09-30T01:16:09.104Z,68.35
2018-09-30T01:18:37.926Z,68.67
2018-09-30T01:21:07.113Z,68.71
2018-09-30T01:23:36.181Z,68.40
2018-09-30T01:26:05.094Z,68.40
2018-09-30T01:28:34.157Z,68.12
2018-09-30T01:31:02.996Z,68.43
2018-09-30T01:33:31.898Z,68.69
2018-09-30T01:36:00.733Z,68.68
2018-09-30T01:38:29.554Z,68.69
2018-09-30T01:40:58.380Z,69.01
2018-09-30T01:43:27.197Z,68.94
2018-09-30T01:45:56.024Z,69.08
2018-09-30T01:48:24.842Z,68.76
2018-09-30T01:50:53.640Z,69.02
2018-09-30T01:53:22.489Z,68.72
2018-09-30T01:55:51.328Z,69.77
2018-09-30T01:58:20.182Z,69.51
2018-09-30T02:00:48.996Z,69.67
2018-09-30T02:03:17.855Z,69.80
2018-09-30T02:05:46.679Z,69.72
2018-09-30T02:08:15.503Z,69.39
2018-09-30T02:10:44.344Z,69.52
2018-09-30T02:13:13.170Z,69.58
2018-09-30T02:15:41.997Z,69.51
2018-09-30T02:18:10.803Z,69.42
2018-09-30T02:20:39.641Z,69.19
2018-09-30T02:23:08.482Z,67.62
2018-09-30T02:25:37.300Z,68.87
2018-09-30T02:28:06.116Z,67.47
2018-09-30T02:30:34.959Z,68.99
2018-09-30T02:33:03.781Z,69.11
2018-09-30T02:35:32.643Z,69.25
2018-09-30T02:38:01.470Z,69.40
2018-09-30T02:40:30.315Z,69.37
2018-09-30T02:42:59.106Z,69.49
2018-09-30T02:45:27.949Z,69.15
2018-09-30T02:47:56.777Z,69.03
2018-09-30T02:50:25.635Z,69.22
2018-09-30T02:52:54.455Z,68.24
2018-09-30T02:55:23.305Z,69.28
2018-09-30T02:57:52.122Z,67.89
2018-09-30T03:00:20.981Z,69.24
2018-09-30T03:02:49.899Z,69.07
2018-09-30T03:05:18.719Z,68.89
2018-09-30T03:08:04.965Z,69.11
2018-09-30T03:10:33.808Z,69.29
2018-09-30T03:13:02.676Z,69.42
2018-09-30T03:15:31.474Z,69.59
2018-09-30T03:18:00.298Z,69.41
2018-09-30T03:20:29.126Z,68.47
2018-09-30T03:22:57.956Z,69.47
2018-09-30T03:25:26.799Z,69.88
2018-09-30T03:27:55.624Z,70.03
2018-09-30T03:30:24.462Z,70.02
2018-09-30T03:32:53.310Z,70.07
2018-09-30T03:35:22.157Z,70.28
2018-09-30T03:37:50.989Z,70.56
2018-09-30T03:40:19.862Z,70.46
2018-09-30T03:42:48.696Z,69.32
2018-09-30T03:45:17.597Z,70.18
2018-09-30T03:47:46.431Z,70.07
2018-09-30T03:50:15.257Z,70.42
2018-09-30T03:52:44.082Z,70.62
2018-09-30T03:55:12.918Z,70.35
2018-09-30T03:57:41.740Z,70.20
2018-09-30T04:00:10.580Z,70.37
2018-09-30T04:02:39.428Z,70.44
2018-09-30T04:05:08.252Z,70.45
2018-09-30T04:07:37.082Z,70.40
2018-09-30T04:10:05.952Z,70.16
2018-09-30T04:12:34.748Z,69.92
2018-09-30T04:15:03.629Z,70.40
2018-09-30T04:17:32.676Z,70.55
2018-09-30T04:20:01.398Z,70.23
2018-09-30T04:22:30.211Z,70.05
2018-09-30T04:24:59.022Z,69.68
2018-09-30T04:27:27.836Z,69.53
2018-09-30T04:29:56.693Z,69.48
2018-09-30T04:32:25.556Z,69.62
2018-09-30T04:34:54.409Z,69.69
2018-09-30T04:37:23.243Z,69.34
2018-09-30T04:39:52.086Z,70.68
2018-09-30T04:42:20.904Z,70.75
2018-09-30T04:44:49.721Z,70.49
2018-09-30T04:47:18.556Z,70.43
2018-09-30T04:49:47.389Z,70.68
2018-09-30T04:52:16.271Z,70.90
2018-09-30T04:54:45.140Z,70.73
2018-09-30T04:57:13.970Z,70.54
2018-09-30T04:59:42.807Z,70.45
2018-09-30T05:02:11.633Z,70.21
2018-09-30T05:04:40.485Z,70.25
2018-09-30T05:07:09.309Z,68.96
2018-09-30T05:09:38.128Z,69.99
2018-09-30T05:12:06.949Z,70.08
2018-09-30T05:14:35.770Z,70.04
2018-09-30T05:17:04.597Z,70.04
2018-09-30T05:19:33.430Z,69.94
2018-09-30T05:22:02.250Z,69.95
2018-09-30T05:24:31.083Z,70.11
2018-09-30T05:26:59.902Z,69.93
2018-09-30T05:29:28.782Z,70.09
2018-09-30T05:31:57.608Z,70.08
2018-09-30T05:34:26.445Z,70.32
2018-09-30T05:36:55.310Z,69.29
2018-09-30T05:39:24.123Z,70.33
2018-09-30T05:41:52.968Z,70.22
2018-09-30T05:44:21.759Z,70.15
2018-09-30T05:46:50.617Z,69.14
2018-09-30T05:49:19.490Z,69.24
2018-09-30T05:51:48.290Z,70.01
2018-09-30T05:54:17.211Z,69.04
2018-09-30T05:56:46.036Z,68.31
2018-09-30T05:59:14.879Z,68.57
2018-09-30T06:01:43.721Z,69.32
2018-09-30T06:04:12.530Z,69.22
2018-09-30T06:06:41.362Z,69.41
2018-09-30T06:09:13.163Z,69.67
2018-09-30T06:11:42.546Z,70.08
2018-09-30T06:14:11.750Z,70.10
2018-09-30T06:16:40.344Z,70.37
2018-09-30T06:19:09.263Z,70.43
2018-09-30T06:21:38.632Z,69.64
2018-09-30T06:24:07.882Z,70.47
2018-09-30T06:26:36.719Z,70.60
2018-09-30T06:29:05.593Z,70.48
2018-09-30T06:31:34.419Z,70.69
2018-09-30T06:34:03.253Z,70.75
2018-09-30T06:36:32.053Z,70.49
2018-09-30T06:39:00.894Z,70.75
2018-09-30T06:41:29.705Z,70.48
2018-09-30T06:43:58.533Z,70.55
2018-09-30T06:46:27.403Z,70.29
2018-09-30T06:48:56.293Z,70.54
2018-09-30T06:51:25.121Z,70.53
2018-09-30T06:53:53.972Z,70.33
2018-09-30T06:56:22.797Z,70.33
2018-09-30T06:58:51.624Z,70.60
2018-09-30T07:01:20.424Z,70.87
2018-09-30T07:03:49.238Z,70.62
2018-09-30T07:06:18.108Z,71.27
2018-09-30T07:08:46.922Z,71.47
2018-09-30T07:11:15.789Z,71.91
2018-09-30T07:13:44.679Z,71.91
2018-09-30T07:16:13.540Z,71.84
2018-09-30T07:18:42.366Z,72.33
2018-09-30T07:21:11.259Z,72.66
2018-09-30T07:23:40.135Z,71.51
2018-09-30T07:26:08.972Z,71.85
2018-09-30T07:28:37.818Z,71.49
2018-09-30T07:31:06.646Z,71.00
2018-09-30T07:33:35.530Z,71.24
2018-09-30T07:36:04.424Z,71.32
2018-09-30T07:38:33.259Z,71.63
2018-09-30T07:41:02.085Z,71.59
2018-09-30T07:43:30.973Z,71.39
2018-09-30T07:45:59.812Z,70.91
2018-09-30T07:48:28.632Z,70.27
2018-09-30T07:50:57.550Z,69.94
2018-09-30T07:53:26.379Z,69.86
2018-09-30T07:55:55.229Z,69.83
2018-09-30T07:58:24.026Z,69.58
2018-09-30T08:00:52.883Z,69.23
2018-09-30T08:03:21.710Z,68.88
2018-09-30T08:05:50.548Z,68.28
2018-09-30T08:08:19.472Z,67.60
2018-09-30T08:10:48.305Z,66.98
2018-09-30T08:13:17.168Z,66.37
2018-09-30T08:15:46.499Z,64.94
2018-09-30T08:18:15.318Z,63.99
2018-09-30T08:20:44.162Z,63.51
2018-09-30T08:23:13.022Z,62.76
2018-09-30T08:25:41.888Z,62.48
2018-09-30T08:28:10.745Z,62.32
2018-09-30T08:30:39.618Z,62.09
2018-09-30T08:33:08.439Z,61.12
2018-09-30T08:35:37.283Z,60.76
2018-09-30T08:38:24.024Z,60.23
2018-09-30T08:41:01.637Z,59.93
2018-09-30T08:43:31.456Z,58.62
2018-09-30T08:46:00.730Z,56.89
2018-09-30T08:48:29.581Z,56.17
2018-09-30T08:50:58.529Z,56.00
2018-09-30T08:53:27.711Z,56.52
2018-09-30T08:55:57.245Z,56.51
2018-09-30T08:58:26.948Z,56.32
2018-09-30T09:00:55.852Z,54.55
2018-09-30T09:03:25.310Z,53.50
2018-09-30T09:05:54.175Z,53.12
2018-09-30T09:08:23.034Z,51.58
2018-09-30T09:10:51.908Z,50.13
2018-09-30T09:13:20.758Z,47.62
2018-09-30T09:15:49.601Z,45.28
2018-09-30T09:18:18.452Z,44.77
2018-09-30T09:20:47.307Z,43.97
2018-09-30T09:23:16.301Z,42.76
2018-09-30T09:25:45.156Z,39.84
2018-09-30T09:28:14.114Z,41.34
2018-09-30T09:30:42.867Z,43.00
2018-09-30T09:33:11.825Z,43.02
2018-09-30T09:35:40.555Z,42.99
2018-09-30T09:38:09.396Z,43.09
2018-09-30T09:40:38.246Z,43.85
2018-09-30T09:43:07.122Z,43.61
2018-09-30T09:45:35.994Z,43.31
2018-09-30T09:48:04.876Z,40.04
2018-09-30T09:50:33.775Z,36.54
2018-09-30T09:53:02.620Z,34.23
2018-09-30T09:55:31.480Z,29.87
2018-09-30T09:58:00.318Z,28.02
2018-09-30T10:00:45.390Z,27.17
2018-09-30T10:03:15.696Z,26.42
2018-09-30T10:05:44.782Z,26.28
2018-09-30T10:08:14.000Z,25.09
2018-09-30T10:10:42.796Z,24.45
2018-09-30T10:13:11.704Z,24.45
2018-09-30T10:15:40.490Z,23.92
2018-09-30T10:18:09.309Z,24.02
2018-09-30T10:20:38.176Z,23.72
2018-09-30T10:23:07.044Z,23.75
2018-09-30T10:25:35.887Z,23.09
2018-09-30T10:28:04.750Z,23.46
2018-09-30T10:30:33.643Z,22.35
2018-09-30T10:33:02.463Z,22.61
2018-09-30T10:35:31.306Z,20.25
2018-09-30T10:38:00.132Z,20.95
2018-09-30T10:40:29.063Z,23.46
2018-09-30T10:42:57.896Z,22.93
2018-09-30T10:45:26.726Z,23.10
2018-09-30T10:47:55.581Z,21.68
2018-09-30T10:50:24.423Z,26.05
2018-09-30T10:52:53.264Z,26.39
2018-09-30T10:55:22.259Z,28.20
2018-09-30T10:57:51.097Z,28.27
2018-09-30T11:00:19.947Z,26.81
2018-09-30T11:02:48.790Z,27.67
2018-09-30T11:05:17.666Z,27.05
2018-09-30T11:07:46.518Z,29.00
2018-09-30T11:10:15.445Z,29.51
2018-09-30T11:12:44.187Z,28.26
2018-09-30T11:15:13.001Z,23.58
2018-09-30T11:17:41.828Z,23.48
2018-09-30T11:20:10.679Z,25.14
2018-09-30T11:22:39.644Z,24.61
2018-09-30T11:25:08.398Z,24.97
2018-09-30T11:27:37.248Z,23.42
2018-09-30T11:30:06.141Z,23.22
2018-09-30T11:32:35.008Z,25.81
2018-09-30T11:35:03.832Z,27.83
2018-09-30T11:37:32.673Z,27.14
2018-09-30T11:40:01.504Z,29.33
2018-09-30T11:42:30.378Z,31.07
2018-09-30T11:44:59.223Z,32.27
2018-09-30T11:47:28.124Z,32.30
2018-09-30T11:49:56.959Z,30.98
2018-09-30T11:52:25.832Z,30.41
2018-09-30T11:54:54.642Z,31.45
2018-09-30T11:57:23.514Z,32.90
2018-09-30T11:59:52.331Z,33.15
2018-09-30T12:02:21.173Z,33.85
2018-09-30T12:04:49.998Z,34.71
2018-09-30T12:07:18.821Z,35.09
2018-09-30T12:09:47.662Z,36.49
2018-09-30T12:12:16.494Z,36.23
2018-09-30T12:14:45.371Z,35.78
2018-09-30T12:17:14.200Z,34.78
2018-09-30T12:19:43.036Z,35.04
2018-09-30T12:22:11.895Z,34.62
2018-09-30T12:24:40.726Z,35.12
2018-09-30T12:27:09.580Z,35.66
2018-09-30T12:29:38.398Z,36.82
2018-09-30T12:32:07.574Z,38.30
2018-09-30T12:34:36.487Z,36.64
2018-09-30T12:37:05.336Z,36.66
2018-09-30T12:39:34.184Z,37.72
2018-09-30T12:42:03.015Z,38.75
2018-09-30T12:44:31.838Z,38.14
2018-09-30T12:47:00.700Z,38.54
2018-09-30T12:49:29.537Z,38.87
2018-09-30T12:51:58.651Z,38.63
2018-09-30T12:54:27.484Z,39.29
2018-09-30T12:56:56.361Z,40.24
2018-09-30T12:59:25.197Z,40.75
2018-09-30T13:01:54.031Z,41.42
2018-09-30T13:04:22.854Z,40.86
2018-09-30T13:06:51.709Z,41.31
2018-09-30T13:09:20.548Z,41.15
2018-09-30T13:11:49.387Z,40.41
2018-09-30T13:14:18.310Z,40.02
2018-09-30T13:16:47.119Z,40.08
2018-09-30T13:19:16.000Z,39.98
2018-09-30T13:21:44.830Z,41.41
2018-09-30T13:24:13.676Z,40.37
2018-09-30T13:26:42.491Z,40.99
2018-09-30T13:29:11.347Z,40.81
2018-09-30T13:31:40.156Z,42.24
2018-09-30T13:34:09.014Z,40.82
2018-09-30T13:36:37.876Z,41.10
2018-09-30T13:39:09.003Z,41.89
2018-09-30T13:41:38.187Z,41.71
2018-09-30T13:44:07.064Z,42.28
2018-09-30T13:46:35.935Z,41.40
2018-09-30T13:49:04.835Z,42.09
2018-09-30T13:51:33.705Z,42.45
2018-09-30T13:54:02.609Z,41.44
2018-09-30T13:56:31.475Z,40.90
2018-09-30T13:59:00.296Z,40.91
2018-09-30T14:01:29.140Z,42.23
2018-09-30T14:03:57.969Z,42.25
2018-09-30T14:06:26.801Z,42.17
2018-09-30T14:08:55.650Z,42.71
2018-09-30T14:11:24.535Z,43.04
2018-09-30T14:13:53.355Z,42.64
2018-09-30T14:16:22.202Z,42.37
2018-09-30T14:18:51.016Z,41.93
2018-09-30T14:21:19.829Z,41.90
2018-09-30T14:23:48.688Z,41.13
2018-09-30T14:26:17.518Z,40.30
2018-09-30T14:28:46.370Z,39.16
2018-09-30T14:31:15.199Z,39.44
2018-09-30T14:33:44.051Z,39.57
2018-09-30T14:36:12.905Z,39.31
2018-09-30T14:38:41.842Z,39.92
2018-09-30T14:41:10.710Z,39.79
2018-09-30T14:43:39.859Z,40.41
2018-09-30T14:46:08.741Z,39.99
2018-09-30T14:48:37.617Z,40.07
2018-09-30T14:51:06.420Z,39.89
2018-09-30T14:53:35.258Z,40.44
2018-09-30T14:56:04.082Z,41.83
2018-09-30T14:58:35.851Z,41.47
2018-09-30T15:01:04.695Z,41.95
2018-09-30T15:03:33.563Z,43.12
2018-09-30T15:06:02.464Z,43.75
2018-09-30T15:08:31.214Z,43.51
2018-09-30T15:11:00.093Z,43.75
2018-09-30T15:13:28.932Z,43.43
2018-09-30T15:15:57.757Z,43.98
2018-09-30T15:18:26.603Z,44.49
2018-09-30T15:20:55.430Z,44.91
2018-09-30T15:23:24.275Z,44.51
2018-09-30T15:25:53.118Z,44.42
2018-09-30T15:28:21.982Z,44.76
2018-09-30T15:30:50.804Z,44.79
2018-09-30T15:33:19.628Z,44.69
2018-09-30T15:35:48.723Z,44.57
2018-09-30T15:38:17.544Z,44.94
2018-09-30T15:40:46.386Z,44.93
2018-09-30T15:43:15.219Z,44.36
2018-09-30T15:45:44.041Z,44.92
2018-09-30T15:48:12.889Z,45.46
2018-09-30T15:50:41.743Z,45.73
2018-09-30T15:53:10.612Z,45.37
2018-09-30T15:55:39.445Z,45.41
2018-09-30T15:58:08.323Z,45.42
2018-09-30T16:00:37.160Z,45.21
2018-09-30T16:03:06.050Z,45.81
2018-09-30T16:05:34.865Z,45.74
2018-09-30T16:08:03.695Z,45.35
2018-09-30T16:10:32.858Z,46.00
2018-09-30T16:13:01.818Z,46.20
2018-09-30T16:15:30.605Z,46.20
2018-09-30T16:17:59.445Z,46.30
2018-09-30T16:20:28.297Z,47.25
2018-09-30T16:22:57.147Z,48.36
2018-09-30T16:25:25.995Z,49.07
2018-09-30T16:27:54.837Z,49.82
2018-09-30T16:30:23.702Z,50.18
2018-09-30T16:32:52.527Z,50.61
2018-09-30T16:35:21.586Z,51.25
2018-09-30T16:37:50.425Z,51.60
2018-09-30T16:40:19.308Z,52.19
2018-09-30T16:42:48.168Z,52.02
2018-09-30T16:45:16.992Z,52.22
2018-09-30T16:47:45.836Z,52.62
2018-09-30T16:50:14.655Z,52.42
2018-09-30T16:52:43.486Z,52.86
2018-09-30T16:55:12.449Z,52.72
2018-09-30T16:57:41.309Z,52.35
2018-09-30T17:00:10.600Z,52.73
2018-09-30T17:02:39.451Z,53.40
2018-09-30T17:05:08.261Z,53.92
2018-09-30T17:07:37.113Z,54.14
2018-09-30T17:10:05.958Z,54.24
2018-09-30T17:12:34.784Z,54.29
2018-09-30T17:15:03.626Z,54.21
2018-09-30T17:17:32.433Z,54.37
2018-09-30T17:20:01.272Z,54.48
2018-09-30T17:22:30.088Z,54.46
2018-09-30T17:24:58.945Z,54.22
2018-09-30T17:27:27.857Z,55.21
2018-09-30T17:29:56.709Z,55.39
2018-09-30T17:32:25.522Z,55.69
2018-09-30T17:34:54.335Z,56.10
2018-09-30T17:37:23.753Z,56.09
2018-09-30T17:39:52.583Z,56.20
2018-09-30T17:42:21.404Z,56.86
2018-09-30T17:44:50.285Z,57.31
2018-09-30T17:47:19.119Z,57.64
2018-09-30T17:49:47.970Z,57.77
2018-09-30T17:52:16.795Z,57.87
2018-09-30T17:54:45.666Z,57.85
2018-09-30T17:57:14.501Z,57.81
2018-09-30T17:59:43.321Z,58.41
2018-09-30T18:02:12.145Z,58.62
2018-09-30T18:04:40.968Z,58.79
2018-09-30T18:07:09.817Z,58.89
2018-09-30T18:09:38.655Z,58.87
2018-09-30T18:12:07.582Z,59.23
2018-09-30T18:14:36.370Z,59.55
2018-09-30T18:17:05.564Z,59.76
2018-09-30T18:19:34.386Z,59.88
2018-09-30T18:22:03.241Z,59.61
2018-09-30T18:24:32.076Z,59.83
2018-09-30T18:27:01.168Z,59.65
2018-09-30T18:29:30.666Z,59.53
2018-09-30T18:31:59.544Z,59.14
2018-09-30T18:34:28.393Z,59.35
2018-09-30T18:36:57.193Z,59.33
2018-09-30T18:39:26.064Z,59.63
2018-09-30T18:41:54.895Z,58.56
2018-09-30T18:44:23.783Z,59.24
2018-09-30T18:46:52.623Z,59.36
2018-09-30T18:49:21.480Z,59.66
2018-09-30T18:51:50.314Z,59.46
2018-09-30T18:54:19.164Z,59.72
2018-09-30T18:56:48.062Z,59.88
2018-09-30T18:59:19.334Z,59.83
2018-09-30T19:01:48.257Z,60.06
2018-09-30T19:04:17.096Z,60.12
2018-09-30T19:06:46.003Z,60.30
2018-09-30T19:09:14.823Z,60.39
2018-09-30T19:11:43.735Z,60.61
2018-09-30T19:14:12.814Z,60.56
2018-09-30T19:16:42.630Z,60.71
2018-09-30T19:19:11.519Z,60.98
2018-09-30T19:21:40.313Z,61.31
2018-09-30T19:24:09.251Z,61.34
2018-09-30T19:26:38.096Z,61.51
2018-09-30T19:29:06.942Z,61.50
2018-09-30T19:31:38.755Z,61.60
2018-09-30T19:34:07.642Z,61.71
2018-09-30T19:36:36.583Z,61.82
2018-09-30T19:39:08.157Z,61.83
2018-09-30T19:41:37.021Z,62.21
2018-09-30T19:44:05.891Z,61.94
2018-09-30T19:46:34.793Z,62.53
2018-09-30T19:49:03.655Z,62.80
2018-09-30T19:51:32.516Z,61.30
2018-09-30T19:54:01.548Z,61.94
2018-09-30T19:56:30.280Z,62.09
2018-09-30T19:58:59.111Z,61.40
2018-09-30T20:01:27.992Z,61.98
2018-09-30T20:03:56.841Z,61.94
2018-09-30T20:06:25.650Z,61.82
2018-09-30T20:08:54.538Z,62.07
2018-09-30T20:11:23.368Z,62.51
2018-09-30T20:13:52.201Z,62.86
2018-09-30T20:16:21.035Z,62.67
2018-09-30T20:18:49.864Z,62.69
2018-09-30T20:21:18.696Z,62.86
2018-09-30T20:23:47.561Z,62.72
2018-09-30T20:26:16.379Z,62.82
2018-09-30T20:28:45.550Z,62.77
2018-09-30T20:31:14.059Z,62.11
2018-09-30T20:33:42.903Z,62.57
2018-09-30T20:36:11.754Z,62.96
2018-09-30T20:38:40.575Z,63.05
2018-09-30T20:41:09.407Z,63.15
2018-09-30T20:43:38.210Z,63.42
2018-09-30T20:46:07.135Z,63.66
2018-09-30T20:48:35.976Z,63.87
2018-09-30T20:51:04.816Z,63.76
2018-09-30T20:53:33.672Z,63.16
2018-09-30T20:56:02.555Z,64.08
2018-09-30T20:58:31.318Z,64.25
2018-09-30T21:01:00.152Z,64.23
2018-09-30T21:03:28.964Z,64.32
2018-09-30T21:06:24.688Z,64.38
2018-09-30T21:08:53.527Z,64.53
2018-09-30T21:11:22.377Z,64.86
2018-09-30T21:13:51.201Z,64.96
2018-09-30T21:16:20.043Z,65.27
2018-09-30T21:18:49.004Z,64.21
2018-09-30T21:21:17.724Z,65.26
2018-09-30T21:23:46.541Z,65.22
2018-09-30T21:26:15.340Z,65.45
2018-09-30T21:28:44.179Z,65.54
2018-09-30T21:31:13.005Z,64.47
2018-09-30T21:33:41.836Z,65.51
2018-09-30T21:36:10.681Z,65.49
2018-09-30T21:38:39.536Z,65.42
2018-09-30T21:41:08.369Z,65.73
2018-09-30T21:43:37.202Z,65.73
2018-09-30T21:46:06.052Z,65.93
2018-09-30T21:48:34.900Z,66.10
2018-09-30T21:51:03.735Z,65.92
2018-09-30T21:53:32.565Z,65.96
2018-09-30T21:56:01.388Z,66.07
2018-09-30T21:58:30.223Z,66.07
2018-09-30T22:01:05.404Z,66.19
2018-09-30T22:03:34.246Z,66.33
2018-09-30T22:06:03.064Z,66.44
2018-09-30T22:08:31.869Z,65.63
2018-09-30T22:11:00.717Z,66.36
2018-09-30T22:13:29.536Z,66.57
2018-09-30T22:15:58.388Z,65.82
2018-09-30T22:18:27.215Z,66.37
2018-09-30T22:20:56.057Z,66.52
2018-09-30T22:23:24.874Z,66.61
2018-09-30T22:25:53.722Z,66.75
2018-09-30T22:28:22.542Z,66.93
2018-09-30T22:30:51.389Z,66.98
2018-09-30T22:33:20.216Z,66.39
2018-09-30T22:35:49.052Z,66.44
2018-09-30T22:38:17.896Z,64.18
2018-09-30T22:40:46.719Z,64.64
2018-09-30T22:43:15.549Z,64.11
2018-09-30T22:45:44.419Z,63.88
2018-09-30T22:48:13.174Z,63.59
2018-09-30T22:50:42.021Z,64.01
2018-09-30T22:53:10.942Z,63.31
2018-09-30T22:55:39.699Z,63.21
2018-09-30T22:58:08.516Z,62.93
2018-09-30T23:00:37.353Z,62.90
2018-09-30T23:03:06.280Z,63.40
2018-09-30T23:05:35.088Z,63.36
2018-09-30T23:08:03.917Z,63.04
2018-09-30T23:10:32.752Z,63.08
2018-09-30T23:13:01.586Z,63.14
2018-09-30T23:15:30.433Z,62.95
2018-09-30T23:17:59.324Z,63.11
2018-09-30T23:20:28.132Z,63.10
2018-09-30T23:22:56.923Z,63.22
2018-09-30T23:25:25.763Z,63.38
2018-09-30T23:27:54.583Z,63.62
2018-09-30T23:30:23.432Z,64.17
2018-09-30T23:32:52.237Z,64.67
2018-09-30T23:35:21.065Z,64.98
2018-09-30T23:37:49.890Z,64.90
2018-09-30T23:40:18.808Z,64.64
2018-09-30T23:42:47.625Z,64.49
2018-09-30T23:45:16.472Z,64.66
2018-09-30T23:47:45.299Z,64.61
2018-09-30T23:50:14.185Z,64.56
2018-09-30T23:52:43.030Z,63.99
2018-09-30T23:55:11.865Z,63.84
2018-09-30T23:57:40.803Z,63.77
